2A5 weather

Causey Airport
Liberty, North Carolina, United States

Public forecast

Using degrees Fahrenheit for public forecast. Weather courtesy of forecast.io.

METAR (pilot weather report)

Closest report is Burlington Alamance Regional Airport, 10.7 nm (19.9 km) NE. Retrieved 2019/07/23 19:25 UTC (18 minutes ago):

KBUY 231925Z AUTO 04009G17KT 4SM -RA BR FEW009 BKN037 OVC090 19/17 A2987 RMK AO2 LTG DSNT NE PRESFR P0020 T01940172

TAF (pilot weather forecast)

Closest forecast is Piedmont Triad International Airport, 19.1 nm (35.4 km) NW. Retrieved 2019/07/23 18:40 UTC (1 hour ago):

TAF KGSO 231737Z 2318/2418 33018G22KT 3SM -RA OVC006 FM240000 03004KT 6SM BR OVC025 FM240800 36006KT 4SM BR SKC FM241300 01008KT P6SM SCT030